Terminal Aerodrome Forecast
Issued by NWS Wilmington, OH

Current Version | Previous Version | Graphics & Text | Print | Product List | Glossary On
Versions: 1 2 3 4 5 6 7 8 9 10 11 12 13 14 15 16 17 18 19 20 21 22 23 24 25 26 27 28 29 30 31
000
FTUS41 KILN 030900 AAC
TAFCVG
TAF AMD
KCVG 030930Z 0310/0412 06007KT 6SM BR VCSH FEW011 BKN027 OVC035
     FM031400 06007KT P6SM -SHRA BKN025 OVC040
     FM031800 04008KT P6SM VCSH BKN040
     FM040100 01007KT P6SM SCT040=

USA.gov is the U.S. government's official web portal to all federal, state and local government web resources and services.